Time;durP1;ratioP1;P1;durP2;ratioP2;P2;SDS_P1;SDS_P2;PMS_P1;PMS_P2;Temp;Humidity;BMP_temperature;BMP_pressure;BME280_temperature;BME280_humidity;BME280_pressure;Samples;Min_cycle;Max_cycle;Signal;HPM_P1;HPM_P2
2023/05/26 00:00:37;;;;;;;21.05;15.70;;;20.30;83.10;;;;;;5111535;27;20571;-77
2023/05/26 00:03:04;;;;;;;20.20;15.68;;;20.30;83.10;;;;;;5111510;27;20040;-78
2023/05/26 00:05:30;;;;;;;18.58;15.13;;;20.30;83.60;;;;;;5112427;27;20027;-77
2023/05/26 00:07:56;;;;;;;19.10;15.23;;;20.30;82.80;;;;;;5110944;27;20023;-78
2023/05/26 00:10:24;;;;;;;20.75;15.82;;;20.20;83.00;;;;;;5112295;27;20027;-78
2023/05/26 00:12:50;;;;;;;19.58;15.75;;;20.20;83.10;;;;;;5110083;27;20039;-76
2023/05/26 00:15:16;;;;;;;18.67;14.75;;;20.20;82.80;;;;;;5111878;27;20035;-78
2023/05/26 00:17:42;;;;;;;17.40;15.07;;;20.20;82.50;;;;;;5111687;27;20036;-78
2023/05/26 00:20:10;;;;;;;17.73;15.43;;;20.10;82.40;;;;;;5112437;27;20083;-78
2023/05/26 00:22:36;;;;;;;17.80;14.63;;;20.20;82.20;;;;;;5112877;27;20093;-78
2023/05/26 00:25:03;;;;;;;20.65;15.40;;;20.10;82.10;;;;;;5113204;27;21062;-78
2023/05/26 00:27:29;;;;;;;21.88;15.77;;;20.10;82.30;;;;;;5110952;27;20095;-78
2023/05/26 00:29:58;;;;;;;18.45;15.00;;;20.10;83.10;;;;;;5096687;27;20028;-77
2023/05/26 00:32:24;;;;;;;21.60;15.32;;;20.10;82.50;;;;;;5111724;27;20028;-77
2023/05/26 00:34:50;;;;;;;18.52;15.85;;;20.00;82.40;;;;;;5095923;27;20097;-77
2023/05/26 00:37:16;;;;;;;17.48;13.95;;;20.00;82.00;;;;;;5111280;27;20035;-77
2023/05/26 00:39:42;;;;;;;19.40;15.10;;;20.00;82.10;;;;;;5120494;27;20406;-78
2023/05/26 00:42:08;;;;;;;18.80;14.73;;;20.00;81.80;;;;;;5093451;28;20031;-77
2023/05/26 00:44:34;;;;;;;18.25;14.43;;;20.00;81.40;;;;;;5096423;27;20047;-74
2023/05/26 00:47:00;;;;;;;17.35;14.35;;;19.90;81.40;;;;;;5112135;27;20172;-76
2023/05/26 00:49:26;;;;;;;16.30;13.80;;;19.90;80.80;;;;;;5095359;27;20034;-76
2023/05/26 00:51:53;;;;;;;21.08;13.82;;;19.90;80.70;;;;;;5111230;27;20032;-77
2023/05/26 00:54:21;;;;;;;19.88;14.30;;;19.90;80.80;;;;;;5094061;27;20031;-73
2023/05/26 00:56:51;;;;;;;19.60;14.77;;;19.80;81.40;;;;;;5110270;27;20031;-74
2023/05/26 00:59:18;;;;;;;21.75;16.27;;;19.80;82.50;;;;;;5096947;28;20030;-78
2023/05/26 01:01:44;;;;;;;22.15;15.90;;;19.90;82.90;;;;;;4987396;28;20072;-77
2023/05/26 01:04:11;;;;;;;22.48;15.77;;;19.90;83.10;;;;;;5037661;27;20432;-78
2023/05/26 01:06:37;;;;;;;21.70;15.57;;;19.90;82.80;;;;;;5111400;27;20043;-79
2023/05/26 01:09:03;;;;;;;21.15;15.95;;;19.80;82.80;;;;;;5083834;28;20050;-80
2023/05/26 01:11:44;;;;;;;18.38;14.98;;;19.80;82.60;;;;;;5111865;27;20039;-76
2023/05/26 01:14:24;;;;;;;22.55;15.27;;;19.80;82.60;;;;;;5095923;28;20088;-79
2023/05/26 01:16:57;;;;;;;21.80;15.60;;;19.80;82.50;;;;;;5111249;27;20056;-80
2023/05/26 01:19:30;;;;;;;22.13;15.43;;;19.80;82.50;;;;;;5017070;28;20710;-77
2023/05/26 01:22:32;;;;;;;21.92;15.68;;;19.80;82.40;;;;;;5053659;28;20366;-77
2023/05/26 01:25:12;;;;;;;16.52;14.45;;;19.80;82.40;;;;;;4991183;28;20043;-75
2023/05/26 01:28:03;;;;;;;18.67;14.75;;;19.80;82.30;;;;;;4992382;28;20034;-74
2023/05/26 01:30:30;;;;;;;20.38;15.88;;;19.80;82.40;;;;;;4976053;28;20134;-77
2023/05/26 01:32:56;;;;;;;20.65;14.65;;;19.70;82.70;;;;;;4991239;28;20034;-76
2023/05/26 01:35:22;;;;;;;22.50;15.30;;;19.70;82.70;;;;;;4991736;28;20038;-78
2023/05/26 01:37:48;;;;;;;19.15;14.73;;;19.70;82.40;;;;;;4992011;28;20034;-77
2023/05/26 01:40:15;;;;;;;17.45;14.95;;;19.70;82.10;;;;;;4993042;28;20117;-77
2023/05/26 01:42:58;;;;;;;18.52;14.10;;;19.70;81.90;;;;;;4991812;28;20133;-77
2023/05/26 01:45:27;;;;;;;20.33;15.25;;;19.70;81.60;;;;;;4993787;28;20048;-77
2023/05/26 01:47:59;;;;;;;22.15;16.10;;;19.70;82.00;;;;;;4992272;28;20038;-76
2023/05/26 01:50:35;;;;;;;17.85;14.75;;;19.70;82.60;;;;;;4975929;28;20026;-75
2023/05/26 01:53:07;;;;;;;21.83;15.52;;;19.70;82.10;;;;;;4991145;28;20042;-75
2023/05/26 01:55:36;;;;;;;18.98;16.05;;;19.70;82.40;;;;;;4983202;28;20031;-76
2023/05/26 01:58:03;;;;;;;19.73;14.93;;;19.70;82.50;;;;;;4992508;28;20045;-75
2023/05/26 02:00:33;;;;;;;20.33;15.60;;;19.70;82.40;;;;;;4977052;28;20038;-77
2023/05/26 02:03:00;;;;;;;25.35;16.48;;;19.70;82.40;;;;;;5108854;28;20038;-75
2023/05/26 02:05:26;;;;;;;23.05;16.25;;;19.70;82.40;;;;;;5111325;28;20026;-75
2023/05/26 02:07:52;;;;;;;20.35;17.20;;;19.80;82.70;;;;;;5095254;28;20491;-82
2023/05/26 02:10:18;;;;;;;19.67;16.95;;;19.80;83.10;;;;;;5099629;27;20516;-76
2023/05/26 02:12:44;;;;;;;21.40;18.00;;;19.80;83.30;;;;;;5117299;27;20119;-78
2023/05/26 02:15:10;;;;;;;25.70;18.52;;;19.80;83.70;;;;;;5100104;27;20038;-77
2023/05/26 02:17:36;;;;;;;24.25;18.45;;;19.80;83.70;;;;;;5114529;27;20069;-77
2023/05/26 02:20:03;;;;;;;27.80;18.58;;;19.80;83.50;;;;;;5100064;27;20023;-76
2023/05/26 02:22:30;;;;;;;23.90;18.02;;;19.90;83.60;;;;;;5113799;27;20033;-76
2023/05/26 02:24:57;;;;;;;22.85;17.48;;;20.00;83.70;;;;;;5114155;27;20039;-77
2023/05/26 02:27:23;;;;;;;25.75;18.40;;;20.20;83.40;;;;;;5102056;27;20040;-76
2023/05/26 02:29:49;;;;;;;27.45;18.08;;;20.20;83.40;;;;;;5114028;27;20031;-76
2023/05/26 02:32:15;;;;;;;26.58;17.92;;;20.40;83.40;;;;;;5113904;27;20027;-77
2023/05/26 02:34:41;;;;;;;22.65;16.42;;;20.50;83.10;;;;;;5113270;27;20039;-77
2023/05/26 02:37:07;;;;;;;20.35;16.50;;;20.60;82.70;;;;;;5099499;27;20126;-77
2023/05/26 02:39:33;;;;;;;23.50;16.25;;;20.60;82.30;;;;;;5114549;27;20135;-77
2023/05/26 02:42:00;;;;;;;22.48;16.92;;;20.80;81.90;;;;;;5112612;27;20065;-74
2023/05/26 02:44:25;;;;;;;19.80;14.88;;;20.90;81.40;;;;;;5098926;27;20071;-76
2023/05/26 02:46:51;;;;;;;16.45;13.98;;;21.00;80.90;;;;;;5085513;27;20133;-76
2023/05/26 02:49:17;;;;;;;16.92;14.75;;;21.10;80.50;;;;;;5113593;27;20027;-75
2023/05/26 02:51:44;;;;;;;15.70;13.18;;;21.20;80.20;;;;;;5113304;27;20059;-76
2023/05/26 02:54:10;;;;;;;14.55;12.23;;;21.20;79.80;;;;;;5113326;27;20451;-78
2023/05/26 02:56:36;;;;;;;18.42;12.95;;;21.30;79.80;;;;;;5098601;27;20044;-78
2023/05/26 02:59:02;;;;;;;17.23;14.13;;;21.40;79.50;;;;;;5114280;27;20039;-78
2023/05/26 03:01:29;;;;;;;19.45;14.88;;;21.40;79.10;;;;;;5099349;27;20605;-78
2023/05/26 03:03:55;;;;;;;19.65;15.55;;;21.40;79.00;;;;;;5112403;27;20138;-78
2023/05/26 03:06:22;;;;;;;19.52;16.10;;;21.40;79.00;;;;;;5113774;27;20049;-80
2023/05/26 03:08:49;;;;;;;21.65;16.38;;;21.40;79.00;;;;;;5099270;27;20043;-80
2023/05/26 03:11:15;;;;;;;21.73;16.83;;;21.30;79.00;;;;;;5114379;27;20118;-79
2023/05/26 03:13:43;;;;;;;20.95;16.50;;;21.30;78.90;;;;;;5098365;27;20042;-80
2023/05/26 03:16:10;;;;;;;19.55;15.93;;;21.40;79.00;;;;;;5098552;27;20127;-76
2023/05/26 03:18:37;;;;;;;22.23;15.98;;;21.30;78.90;;;;;;5097827;27;20035;-78
2023/05/26 03:21:06;;;;;;;21.00;16.50;;;21.30;78.80;;;;;;5098185;27;20042;-79
2023/05/26 03:23:33;;;;;;;21.08;16.55;;;21.30;78.70;;;;;;5096453;27;20043;-73
2023/05/26 03:26:00;;;;;;;19.90;16.25;;;21.30;78.60;;;;;;5099756;27;20693;-74
2023/05/26 03:28:29;;;;;;;19.00;15.63;;;21.40;78.50;;;;;;5099321;27;20031;-81
2023/05/26 03:30:57;;;;;;;18.60;15.23;;;21.40;79.10;;;;;;5098753;27;20063;-80
2023/05/26 03:33:24;;;;;;;18.60;14.88;;;21.60;78.20;;;;;;5084916;27;20036;-77
2023/05/26 03:35:51;;;;;;;18.48;13.50;;;21.80;77.80;;;;;;5097089;27;20617;-82
2023/05/26 03:38:17;;;;;;;13.73;11.20;;;22.00;77.70;;;;;;5098223;27;20058;-81
2023/05/26 03:40:44;;;;;;;13.05;11.10;;;22.10;77.80;;;;;;5098606;27;20063;-78
2023/05/26 03:43:10;;;;;;;12.85;11.43;;;22.30;77.90;;;;;;5111281;27;20027;-78
2023/05/26 03:45:44;;;;;;;12.02;10.82;;;22.40;77.60;;;;;;5096518;27;20038;-80
2023/05/26 03:48:13;;;;;;;12.13;10.93;;;22.60;77.40;;;;;;5101326;28;20027;-75
2023/05/26 03:50:41;;;;;;;12.05;10.75;;;22.70;77.50;;;;;;5097075;27;20148;-76
2023/05/26 03:53:08;;;;;;;14.48;11.25;;;22.80;77.30;;;;;;5112957;27;20393;-77
2023/05/26 03:55:33;;;;;;;13.10;11.68;;;23.00;77.30;;;;;;5097479;27;20044;-78
2023/05/26 03:58:00;;;;;;;13.95;11.63;;;23.10;77.00;;;;;;5095979;27;20043;-74
2023/05/26 04:00:31;;;;;;;13.10;11.18;;;23.20;76.40;;;;;;5097407;27;20031;-77
2023/05/26 04:03:01;;;;;;;13.73;10.90;;;23.30;76.10;;;;;;5097346;27;20060;-77
2023/05/26 04:05:26;;;;;;;12.15;10.85;;;23.50;75.70;;;;;;5113016;27;20505;-77
2023/05/26 04:07:54;;;;;;;13.15;10.98;;;23.60;75.30;;;;;;5096296;27;20494;-78
2023/05/26 04:10:20;;;;;;;11.85;10.20;;;23.70;75.10;;;;;;5095797;27;20557;-78
2023/05/26 04:12:46;;;;;;;10.73;9.52;;;23.80;75.00;;;;;;5098051;27;20164;-78
2023/05/26 04:15:12;;;;;;;11.20;10.05;;;24.00;75.00;;;;;;5051466;28;20034;-76
2023/05/26 04:17:38;;;;;;;11.82;9.98;;;24.10;74.70;;;;;;4968127;28;20113;-76
2023/05/26 04:20:06;;;;;;;10.98;9.15;;;24.20;74.60;;;;;;4997393;28;20038;-77
2023/05/26 04:22:32;;;;;;;10.77;9.70;;;24.40;74.50;;;;;;4977087;28;20137;-79
2023/05/26 04:25:00;;;;;;;10.07;9.07;;;24.50;74.30;;;;;;4978323;28;20031;-75
2023/05/26 04:27:43;;;;;;;12.30;9.73;;;24.60;74.10;;;;;;5021808;28;20071;-78
2023/05/26 04:30:39;;;;;;;10.68;9.10;;;24.80;73.80;;;;;;5042813;28;20034;-78
2023/05/26 04:33:23;;;;;;;10.52;8.73;;;24.90;73.60;;;;;;4996149;28;20041;-75
2023/05/26 04:36:16;;;;;;;10.30;9.20;;;25.00;73.20;;;;;;4920370;28;20143;-77
2023/05/26 04:38:45;;;;;;;11.32;8.75;;;25.20;72.90;;;;;;4924684;28;20078;-76
2023/05/26 04:41:11;;;;;;;10.05;9.00;;;25.30;72.70;;;;;;4998988;28;20088;-77
2023/05/26 04:43:38;;;;;;;11.68;9.00;;;25.50;72.50;;;;;;4945062;28;20087;-77
2023/05/26 04:46:04;;;;;;;10.00;8.88;;;25.60;72.20;;;;;;4998796;28;20040;-77
2023/05/26 04:48:31;;;;;;;9.82;8.80;;;25.70;72.10;;;;;;5017340;28;20036;-78
2023/05/26 04:50:57;;;;;;;11.38;9.15;;;25.80;71.90;;;;;;5033101;28;20090;-78
2023/05/26 04:53:23;;;;;;;11.00;9.15;;;26.00;71.80;;;;;;5017098;28;20049;-75
2023/05/26 04:55:49;;;;;;;9.27;8.38;;;26.10;71.60;;;;;;5017873;28;20103;-78
2023/05/26 04:58:16;;;;;;;9.07;8.18;;;26.20;71.50;;;;;;5018211;28;20120;-78
2023/05/26 05:00:42;;;;;;;8.60;7.80;;;26.30;71.30;;;;;;4969385;28;20099;-80
2023/05/26 05:03:28;;;;;;;10.30;8.53;;;26.40;71.10;;;;;;4931691;28;20036;-77
2023/05/26 05:06:04;;;;;;;10.45;7.88;;;26.50;70.90;;;;;;4904745;28;20399;-77
2023/05/26 05:08:31;;;;;;;11.30;7.68;;;26.70;70.90;;;;;;4899226;28;20119;-76
2023/05/26 05:10:58;;;;;;;9.40;8.45;;;26.80;70.90;;;;;;5032103;28;20127;-81
2023/05/26 05:13:24;;;;;;;8.07;7.25;;;27.00;70.80;;;;;;5079007;27;20426;-85
2023/05/26 05:15:50;;;;;;;8.50;7.70;;;27.00;70.50;;;;;;5113207;28;20028;-80
2023/05/26 05:18:17;;;;;;;8.48;7.55;;;27.10;70.40;;;;;;5096475;27;20046;-80
2023/05/26 05:20:43;;;;;;;10.95;8.27;;;27.20;70.30;;;;;;5097779;28;20030;-75
2023/05/26 05:23:09;;;;;;;8.55;7.18;;;27.30;70.10;;;;;;5080685;28;20494;-77
2023/05/26 05:25:35;;;;;;;8.05;7.07;;;27.40;70.00;;;;;;5096568;28;20047;-79
2023/05/26 05:28:03;;;;;;;8.05;7.00;;;27.50;70.00;;;;;;5095646;28;20142;-75
2023/05/26 05:30:29;;;;;;;8.48;6.72;;;27.70;69.90;;;;;;5094113;28;20032;-78
2023/05/26 05:32:55;;;;;;;7.30;6.60;;;27.80;69.60;;;;;;5094637;28;20030;-77
2023/05/26 05:35:23;;;;;;;7.70;6.80;;;27.90;69.40;;;;;;5095449;28;20600;-76
2023/05/26 05:37:50;;;;;;;6.80;6.10;;;28.00;69.10;;;;;;5095266;28;20553;-76
2023/05/26 05:40:16;;;;;;;7.70;6.45;;;28.10;68.80;;;;;;5094778;28;20035;-78
2023/05/26 05:42:42;;;;;;;7.70;6.70;;;28.20;68.50;;;;;;5094754;28;20035;-77
2023/05/26 05:45:09;;;;;;;7.32;6.63;;;28.40;68.40;;;;;;5094479;28;20045;-79
2023/05/26 05:47:53;;;;;;;7.43;6.10;;;28.50;68.10;;;;;;5113819;27;20135;-79
2023/05/26 05:50:19;;;;;;;6.97;6.28;;;28.70;67.50;;;;;;5098670;27;20038;-78
2023/05/26 05:52:47;;;;;;;7.53;6.22;;;28.90;67.10;;;;;;5082488;27;20034;-77
2023/05/26 05:55:13;;;;;;;8.35;6.40;;;29.00;67.50;;;;;;5099114;27;20126;-78
2023/05/26 05:57:39;;;;;;;7.25;6.10;;;29.00;66.60;;;;;;5114552;27;20917;-77
2023/05/26 06:00:07;;;;;;;8.68;6.25;;;29.10;66.40;;;;;;5097952;27;20127;-80
2023/05/26 06:02:39;;;;;;;7.35;6.60;;;29.20;66.30;;;;;;5114653;27;20036;-77
2023/05/26 06:05:06;;;;;;;7.03;5.97;;;29.30;66.20;;;;;;5116821;27;20478;-78
2023/05/26 06:07:32;;;;;;;5.93;5.32;;;29.30;66.00;;;;;;5098755;27;20562;-78
2023/05/26 06:09:58;;;;;;;6.20;5.57;;;29.40;66.00;;;;;;5101384;27;20035;-79
2023/05/26 06:12:25;;;;;;;7.28;5.90;;;29.50;66.50;;;;;;5089183;27;20042;-81
2023/05/26 06:14:51;;;;;;;7.32;5.80;;;29.50;65.60;;;;;;5099455;27;20181;-80
2023/05/26 06:17:18;;;;;;;7.15;5.55;;;29.50;65.50;;;;;;5116551;27;20397;-81
2023/05/26 06:19:44;;;;;;;6.38;5.72;;;29.60;65.40;;;;;;5112404;27;20043;-77
2023/05/26 06:22:10;;;;;;;7.20;5.50;;;29.70;65.50;;;;;;5104269;27;20104;-78
2023/05/26 06:24:36;;;;;;;5.95;5.28;;;29.80;65.50;;;;;;5114131;27;20076;-79
2023/05/26 06:27:02;;;;;;;5.57;5.07;;;29.80;65.20;;;;;;5094473;27;20460;-76
2023/05/26 06:29:28;;;;;;;5.97;5.10;;;29.90;65.00;;;;;;5097159;27;20394;-75
2023/05/26 06:31:54;;;;;;;5.68;4.80;;;30.00;64.70;;;;;;5095488;27;20032;-77
2023/05/26 06:34:20;;;;;;;5.45;4.90;;;30.00;64.50;;;;;;5093827;27;20470;-75
2023/05/26 06:36:46;;;;;;;6.40;5.10;;;30.00;63.80;;;;;;5098641;27;20031;-77
2023/05/26 06:39:12;;;;;;;5.40;4.97;;;30.10;64.10;;;;;;5095099;27;20040;-77
2023/05/26 06:41:39;;;;;;;5.82;5.28;;;30.20;63.90;;;;;;5110255;27;20481;-76
2023/05/26 06:44:06;;;;;;;5.30;4.80;;;30.30;63.80;;;;;;5096121;27;20055;-78
2023/05/26 06:46:32;;;;;;;7.32;4.80;;;30.30;63.60;;;;;;5094373;27;20521;-77
2023/05/26 06:48:58;;;;;;;6.57;5.10;;;30.30;63.30;;;;;;5109940;27;20118;-77
2023/05/26 06:51:33;;;;;;;5.53;5.03;;;30.40;63.30;;;;;;5094590;27;20048;-77
2023/05/26 06:54:00;;;;;;;20.15;4.97;;;30.40;63.20;;;;;;5075696;27;20023;-72
2023/05/26 06:56:26;;;;;;;8.95;5.25;;;30.30;59.30;;;;;;5093653;27;20028;-78
2023/05/26 06:58:52;;;;;;;8.85;5.43;;;30.00;64.90;;;;;;5095767;27;20035;-81
2023/05/26 07:01:20;;;;;;;6.00;5.00;;;29.50;64.00;;;;;;5093493;27;20045;-77
2023/05/26 07:03:46;;;;;;;7.28;5.32;;;29.50;62.90;;;;;;5095001;27;20039;-77
2023/05/26 07:06:14;;;;;;;5.32;4.80;;;29.30;63.80;;;;;;5052208;28;20555;-80
2023/05/26 07:08:40;;;;;;;6.15;5.45;;;29.30;63.20;;;;;;4993485;28;20124;-77
2023/05/26 07:11:32;;;;;;;7.43;5.63;;;29.30;62.80;;;;;;5001707;28;20052;-80
2023/05/26 07:14:00;;;;;;;6.13;4.88;;;29.00;59.80;;;;;;4990368;28;20550;-74
2023/05/26 07:16:26;;;;;;;10.50;5.53;;;28.90;63.60;;;;;;5055018;28;20028;-89
2023/05/26 07:18:52;;;;;;;13.90;5.75;;;28.80;61.60;;;;;;5013743;28;20030;-82
2023/05/26 07:21:21;;;;;;;7.60;4.85;;;28.60;59.00;;;;;;4993768;28;20047;-82
2023/05/26 07:23:48;;;;;;;7.28;5.30;;;28.60;55.10;;;;;;4981085;28;20389;-83
2023/05/26 07:26:15;;;;;;;6.82;4.90;;;28.50;60.30;;;;;;4993649;28;20620;-83
2023/05/26 07:40:56;;;;;;;4.95;4.47;;;28.20;61.30;;;;;;5031974;27;20448;-80
2023/05/26 07:43:22;;;;;;;5.70;4.45;;;28.20;58.10;;;;;;5015225;28;20131;-83
2023/05/26 07:45:48;;;;;;;8.27;4.78;;;28.20;60.60;;;;;;5020088;28;20121;-82
2023/05/26 07:48:14;;;;;;;4.68;4.28;;;28.20;59.30;;;;;;5019606;28;20081;-82
2023/05/26 07:50:41;;;;;;;7.20;4.30;;;28.00;58.50;;;;;;5016245;28;20136;-80
2023/05/26 07:53:07;;;;;;;4.00;3.70;;;27.90;59.00;;;;;;5015404;28;20026;-84
2023/05/26 07:55:33;;;;;;;4.55;4.15;;;27.80;54.20;;;;;;5017941;28;20034;-84
2023/05/26 07:58:00;;;;;;;4.65;4.10;;;27.80;60.30;;;;;;5022092;28;20034;-80
2023/05/26 08:00:26;;;;;;;5.90;4.32;;;27.80;59.90;;;;;;5016824;28;20072;-82
2023/05/26 08:02:53;;;;;;;4.75;3.85;;;27.80;60.00;;;;;;5018310;28;20404;-79
2023/05/26 08:05:19;;;;;;;7.68;4.03;;;27.80;59.40;;;;;;5018900;28;20038;-81
2023/05/26 08:07:45;;;;;;;4.57;3.92;;;27.70;59.60;;;;;;5004874;28;20080;-82
2023/05/26 08:10:11;;;;;;;5.72;4.25;;;27.70;59.10;;;;;;5020062;28;20042;-81
2023/05/26 08:12:37;;;;;;;5.28;4.45;;;27.70;58.20;;;;;;5017931;28;20161;-80
2023/05/26 08:15:06;;;;;;;4.20;3.80;;;27.60;55.90;;;;;;5018354;28;20038;-77
2023/05/26 08:17:32;;;;;;;6.60;4.00;;;27.60;58.10;;;;;;5037963;28;20049;-82
2023/05/26 08:19:58;;;;;;;4.45;4.05;;;27.50;57.70;;;;;;5035706;28;20535;-81
2023/05/26 08:22:24;;;;;;;4.78;3.80;;;27.50;58.20;;;;;;5036537;28;20123;-80
2023/05/26 08:24:50;;;;;;;4.57;4.18;;;27.40;58.10;;;;;;5037507;28;20128;-85
2023/05/26 08:27:16;;;;;;;4.97;4.40;;;27.40;54.30;;;;;;5037039;28;20063;-83
2023/05/26 08:29:42;;;;;;;4.22;3.83;;;27.40;57.50;;;;;;5036671;28;20102;-82
2023/05/26 08:32:08;;;;;;;6.25;4.50;;;27.40;57.70;;;;;;5036101;28;20041;-81
2023/05/26 08:34:34;;;;;;;4.68;4.00;;;27.30;55.30;;;;;;5036141;28;20132;-80
2023/05/26 08:37:00;;;;;;;5.47;4.15;;;27.30;57.60;;;;;;5036025;28;20082;-78
2023/05/26 08:39:26;;;;;;;5.07;4.10;;;27.10;55.20;;;;;;5035171;28;20052;-79
2023/05/26 08:41:57;;;;;;;6.13;4.25;;;27.00;55.70;;;;;;5023894;28;20028;-80
2023/05/26 08:44:24;;;;;;;4.47;4.00;;;27.10;57.70;;;;;;5024694;28;20079;-80
2023/05/26 08:46:55;;;;;;;5.18;3.97;;;27.10;58.00;;;;;;5038649;28;20044;-81
2023/05/26 08:49:22;;;;;;;4.10;3.70;;;27.10;57.10;;;;;;5022510;28;20427;-79
2023/05/26 08:52:10;;;;;;;6.82;3.90;;;27.10;57.70;;;;;;5023270;28;20041;-80
2023/05/26 08:54:36;;;;;;;4.60;4.20;;;27.00;55.80;;;;;;5026260;28;20044;-78
2023/05/26 08:57:04;;;;;;;6.43;4.07;;;26.90;50.90;;;;;;5021099;28;20488;-80
2023/05/26 08:59:32;;;;;;;5.75;4.20;;;26.90;49.80;;;;;;5020304;28;20077;-82
2023/05/26 09:01:58;;;;;;;4.95;3.97;;;26.90;52.40;;;;;;5022418;28;20040;-81
2023/05/26 09:04:29;;;;;;;9.25;4.47;;;26.80;53.20;;;;;;5019297;28;20037;-85
2023/05/26 09:06:55;;;;;;;6.20;3.97;;;26.80;56.60;;;;;;5021738;28;20030;-81
2023/05/26 09:09:21;;;;;;;5.38;4.00;;;26.90;57.90;;;;;;5022895;28;20045;-88
2023/05/26 09:11:47;;;;;;;4.90;4.13;;;26.90;53.40;;;;;;5022125;28;20034;-83
2023/05/26 09:14:15;;;;;;;8.80;3.90;;;26.90;52.60;;;;;;5021372;28;20043;-84
2023/05/26 09:16:42;;;;;;;7.03;4.15;;;26.90;54.20;;;;;;5020852;28;20804;-83
2023/05/26 09:19:14;;;;;;;6.38;4.30;;;27.00;55.40;;;;;;5022347;28;20033;-84
2023/05/26 09:21:45;;;;;;;6.63;4.10;;;26.90;53.80;;;;;;5022161;28;20298;-87
2023/05/26 09:24:15;;;;;;;6.63;4.10;;;26.90;52.30;;;;;;5020490;28;20044;-81
2023/05/26 09:26:43;;;;;;;7.38;4.30;;;26.90;50.00;;;;;;5018920;28;20041;-81
2023/05/26 09:29:09;;;;;;;4.35;3.95;;;26.90;52.50;;;;;;5020313;28;20046;-84
2023/05/26 09:31:46;;;;;;;9.50;4.65;;;26.90;51.00;;;;;;5023657;28;20033;-81
2023/05/26 09:34:13;;;;;;;7.40;4.70;;;26.80;52.20;;;;;;5037242;28;20040;-85
2023/05/26 09:36:40;;;;;;;6.18;4.90;;;26.80;48.00;;;;;;5024357;28;20040;-77
2023/05/26 09:39:08;;;;;;;7.65;4.78;;;26.90;49.40;;;;;;5019786;28;20053;-77
2023/05/26 09:41:43;;;;;;;6.10;4.80;;;26.80;55.10;;;;;;5018333;28;20036;-77
2023/05/26 09:44:13;;;;;;;5.90;4.65;;;26.80;51.10;;;;;;5020648;28;20038;-78
2023/05/26 09:46:40;;;;;;;11.45;5.75;;;26.80;52.10;;;;;;5020313;28;20042;-76
2023/05/26 09:49:18;;;;;;;12.98;5.57;;;26.90;63.30;;;;;;5020699;28;20030;-76
2023/05/26 09:51:48;;;;;;;7.80;5.57;;;26.80;55.40;;;;;;5022224;28;20030;-78
2023/05/26 09:54:14;;;;;;;12.35;5.43;;;26.80;53.40;;;;;;5019064;28;20404;-80
2023/05/26 09:56:52;;;;;;;6.95;4.80;;;26.80;60.30;;;;;;5041487;28;20479;-79
2023/05/26 09:59:26;;;;;;;5.45;4.70;;;26.80;57.70;;;;;;5017500;28;20079;-77
2023/05/26 10:01:53;;;;;;;7.15;5.28;;;26.80;54.10;;;;;;5034531;28;20056;-75
2023/05/26 10:04:19;;;;;;;6.40;5.43;;;26.80;61.20;;;;;;5019047;28;20313;-78
2023/05/26 10:06:48;;;;;;;11.07;5.25;;;26.80;57.80;;;;;;5018793;28;20038;-77
2023/05/26 10:09:16;;;;;;;7.97;5.10;;;26.70;61.30;;;;;;5016162;28;20029;-78
2023/05/26 10:11:45;;;;;;;6.60;5.57;;;26.70;59.30;;;;;;5018552;28;20025;-77
2023/05/26 10:14:11;;;;;;;5.68;4.93;;;26.60;59.50;;;;;;5017579;28;20033;-77
2023/05/26 10:16:38;;;;;;;6.13;5.07;;;26.70;56.70;;;;;;5020273;28;20116;-76
2023/05/26 10:19:05;;;;;;;10.00;5.63;;;26.60;54.70;;;;;;5020986;28;20055;-76
2023/05/26 10:21:40;;;;;;;5.57;5.07;;;26.60;60.00;;;;;;5019567;28;20056;-77
2023/05/26 10:24:23;;;;;;;7.47;5.75;;;26.70;57.80;;;;;;5021272;28;20038;-78
2023/05/26 10:26:54;;;;;;;5.60;4.97;;;26.60;62.50;;;;;;5021447;28;20114;-78
2023/05/26 10:29:31;;;;;;;6.82;4.80;;;26.60;50.60;;;;;;5017549;28;20037;-79
2023/05/26 10:31:57;;;;;;;6.63;5.22;;;26.60;50.00;;;;;;5018893;28;20557;-76
2023/05/26 10:34:45;;;;;;;6.07;5.38;;;26.50;49.10;;;;;;5019966;28;20148;-80
2023/05/26 10:37:15;;;;;;;7.03;4.90;;;26.60;48.30;;;;;;5018689;28;20448;-80
2023/05/26 10:39:41;;;;;;;5.60;4.78;;;26.60;56.30;;;;;;5017323;28;20528;-76
2023/05/26 10:42:20;;;;;;;6.20;5.20;;;26.60;54.70;;;;;;5017864;28;20041;-79
2023/05/26 10:44:54;;;;;;;7.63;4.78;;;26.60;60.40;;;;;;5019156;28;20026;-77
2023/05/26 10:47:20;;;;;;;6.57;5.18;;;26.50;60.40;;;;;;5019078;28;20061;-79
2023/05/26 10:49:57;;;;;;;9.52;5.20;;;26.60;54.70;;;;;;5018822;28;20084;-79
2023/05/26 10:52:26;;;;;;;6.85;4.70;;;26.70;55.20;;;;;;5018714;28;20037;-77
2023/05/26 10:54:53;;;;;;;8.50;4.70;;;26.70;53.60;;;;;;5018255;28;20369;-78
2023/05/26 10:57:34;;;;;;;7.13;3.95;;;26.70;52.90;;;;;;5018319;28;20029;-78
2023/05/26 11:00:19;;;;;;;6.55;3.72;;;26.60;50.80;;;;;;5016926;28;20025;-78
2023/05/26 11:02:45;;;;;;;6.73;3.50;;;26.50;52.70;;;;;;5018779;28;20447;-79
2023/05/26 11:05:54;;;;;;;9.88;3.50;;;26.50;52.30;;;;;;5018377;28;20706;-76
2023/05/26 11:08:22;;;;;;;6.70;3.25;;;26.50;51.60;;;;;;4961992;28;20138;-77
2023/05/26 11:11:04;;;;;;;5.38;3.40;;;26.40;52.00;;;;;;4962349;28;20659;-77
2023/05/26 11:13:46;;;;;;;7.32;3.95;;;26.40;52.80;;;;;;4963300;28;20035;-77
2023/05/26 11:16:20;;;;;;;3.70;3.40;;;26.40;52.70;;;;;;4962347;28;20089;-77
2023/05/26 11:18:48;;;;;;;6.07;3.60;;;26.40;52.40;;;;;;4961684;28;20501;-77
2023/05/26 11:21:15;;;;;;;4.53;3.75;;;26.40;53.10;;;;;;4977435;28;20039;-77
2023/05/26 11:23:41;;;;;;;8.15;4.03;;;26.40;53.10;;;;;;4961801;28;20527;-77
2023/05/26 11:26:33;;;;;;;4.00;3.35;;;26.40;51.30;;;;;;4977543;28;20038;-78
2023/05/26 11:29:02;;;;;;;5.95;3.53;;;26.30;50.70;;;;;;4957950;28;20050;-77
2023/05/26 11:31:28;;;;;;;7.70;3.65;;;26.30;50.40;;;;;;4961380;28;20038;-76
2023/05/26 11:33:55;;;;;;;3.40;3.10;;;26.30;51.50;;;;;;4960107;28;20035;-77
2023/05/26 11:36:23;;;;;;;8.20;3.28;;;26.20;52.70;;;;;;4963414;28;20031;-75
2023/05/26 11:38:57;;;;;;;4.97;3.78;;;26.20;53.10;;;;;;4963826;28;20149;-76
2023/05/26 11:41:28;;;;;;;4.30;3.10;;;26.20;52.30;;;;;;4960399;28;20133;-78
2023/05/26 11:43:55;;;;;;;10.85;3.65;;;26.20;53.00;;;;;;4992680;28;20280;-77
2023/05/26 11:46:21;;;;;;;8.48;3.63;;;26.20;51.60;;;;;;5015996;28;20086;-75
2023/05/26 11:48:48;;;;;;;6.18;3.05;;;26.10;52.80;;;;;;5019233;28;20041;-76
2023/05/26 11:51:15;;;;;;;4.57;3.30;;;26.10;53.10;;;;;;5020240;28;20029;-78
2023/05/26 11:53:42;;;;;;;5.68;3.30;;;26.10;52.60;;;;;;5019765;28;20040;-73
2023/05/26 11:56:14;;;;;;;10.35;3.70;;;26.00;53.00;;;;;;5048859;28;20093;-77
2023/05/26 11:58:56;;;;;;;5.13;3.78;;;26.00;53.80;;;;;;5022808;28;20069;-75
2023/05/26 12:01:25;;;;;;;5.28;3.00;;;26.00;52.90;;;;;;5017489;28;20038;-77
2023/05/26 12:03:52;;;;;;;5.97;3.80;;;25.90;52.40;;;;;;5018772;28;20053;-77
2023/05/26 12:06:23;;;;;;;4.80;3.67;;;26.00;52.30;;;;;;5018826;28;20155;-73
2023/05/26 12:08:51;;;;;;;6.25;3.67;;;25.80;51.30;;;;;;5023378;28;20499;-75
2023/05/26 12:11:29;;;;;;;8.45;3.83;;;25.80;53.00;;;;;;5019361;28;20033;-76
2023/05/26 12:13:58;;;;;;;7.97;3.92;;;25.80;51.30;;;;;;5019034;28;20065;-76
2023/05/26 12:16:25;;;;;;;4.38;3.50;;;25.70;50.60;;;;;;5020147;28;20092;-77
2023/05/26 12:18:53;;;;;;;6.35;3.70;;;25.70;50.80;;;;;;5023506;28;20042;-77
2023/05/26 12:21:19;;;;;;;9.50;4.00;;;25.70;51.90;;;;;;5021899;28;20033;-74
2023/05/26 12:23:46;;;;;;;6.53;3.80;;;25.60;49.50;;;;;;5021108;28;20092;-79
2023/05/26 12:26:25;;;;;;;9.20;3.50;;;25.60;48.80;;;;;;5023290;28;20436;-77
2023/05/26 12:29:11;;;;;;;5.65;3.30;;;25.60;48.60;;;;;;5027977;28;20075;-74
2023/05/26 12:31:40;;;;;;;;;;;25.50;47.70;;;;;;5025737;28;20377;-76
2023/05/26 12:34:10;;;;;;;5.85;4.43;;;25.60;48.90;;;;;;5022983;28;19963;-76
2023/05/26 12:36:36;;;;;;;5.53;4.20;;;25.60;49.80;;;;;;5005984;28;20041;-76
2023/05/26 12:39:04;;;;;;;5.25;3.67;;;25.70;49.90;;;;;;5020764;28;20041;-78
2023/05/26 12:41:30;;;;;;;5.60;3.50;;;25.70;48.90;;;;;;5022807;28;20413;-75
2023/05/26 12:43:57;;;;;;;4.68;3.20;;;25.70;49.50;;;;;;5022580;28;20037;-76
2023/05/26 12:46:24;;;;;;;7.50;4.00;;;25.70;49.50;;;;;;5023399;28;20068;-76
2023/05/26 12:48:50;;;;;;;5.35;3.65;;;25.80;49.00;;;;;;5024501;28;20061;-75
2023/05/26 12:51:16;;;;;;;4.82;3.63;;;25.80;48.40;;;;;;5021417;28;20038;-76
2023/05/26 12:53:43;;;;;;;7.03;4.28;;;25.80;48.20;;;;;;5023765;28;20048;-75
2023/05/26 12:56:13;;;;;;;9.45;3.40;;;25.80;49.40;;;;;;5023200;28;20121;-77
2023/05/26 12:58:40;;;;;;;5.00;4.03;;;25.90;48.90;;;;;;5022898;28;20704;-75
2023/05/26 13:01:08;;;;;;;5.78;3.65;;;25.90;48.70;;;;;;5024766;28;20044;-77